sensor_id;sensor_type;location;lat;lon;timestamp;temperature;humidity
18998;DHT22;9632;51.018;4.284;2023-06-22T00:00:58;22.00;99.90
18998;DHT22;9632;51.018;4.284;2023-06-22T00:03:24;22.00;99.90
18998;DHT22;9632;51.018;4.284;2023-06-22T00:05:51;21.90;99.90
18998;DHT22;9632;51.018;4.284;2023-06-22T00:08:18;21.90;99.90
18998;DHT22;9632;51.018;4.284;2023-06-22T00:10:44;21.90;99.90
18998;DHT22;9632;51.018;4.284;2023-06-22T00:13:11;21.90;99.90
18998;DHT22;9632;51.018;4.284;2023-06-22T00:15:37;21.90;99.90
18998;DHT22;9632;51.018;4.284;2023-06-22T00:18:05;21.80;99.90
18998;DHT22;9632;51.018;4.284;2023-06-22T00:20:31;21.80;99.90
18998;DHT22;9632;51.018;4.284;2023-06-22T00:22:59;21.80;99.90
18998;DHT22;9632;51.018;4.284;2023-06-22T00:25:25;21.70;99.90
18998;DHT22;9632;51.018;4.284;2023-06-22T00:27:51;21.70;99.90
18998;DHT22;9632;51.018;4.284;2023-06-22T00:30:18;21.70;99.90
18998;DHT22;9632;51.018;4.284;2023-06-22T00:32:44;21.60;99.90
18998;DHT22;9632;51.018;4.284;2023-06-22T00:35:13;21.60;99.90
18998;DHT22;9632;51.018;4.284;2023-06-22T00:37:39;21.60;99.90
18998;DHT22;9632;51.018;4.284;2023-06-22T00:40:09;21.60;99.90
18998;DHT22;9632;51.018;4.284;2023-06-22T00:42:37;21.50;99.90
18998;DHT22;9632;51.018;4.284;2023-06-22T00:45:03;21.50;99.90
18998;DHT22;9632;51.018;4.284;2023-06-22T00:47:29;21.50;99.90
18998;DHT22;9632;51.018;4.284;2023-06-22T00:49:55;21.40;99.90
18998;DHT22;9632;51.018;4.284;2023-06-22T00:52:22;21.40;99.90
18998;DHT22;9632;51.018;4.284;2023-06-22T00:54:52;21.40;99.90
18998;DHT22;9632;51.018;4.284;2023-06-22T00:57:19;21.40;99.90
18998;DHT22;9632;51.018;4.284;2023-06-22T00:59:46;21.30;99.90
18998;DHT22;9632;51.018;4.284;2023-06-22T01:02:13;21.30;99.90
18998;DHT22;9632;51.018;4.284;2023-06-22T01:04:39;21.30;99.90
18998;DHT22;9632;51.018;4.284;2023-06-22T01:10:21;21.20;99.90
18998;DHT22;9632;51.018;4.284;2023-06-22T01:12:53;21.20;99.90
18998;DHT22;9632;51.018;4.284;2023-06-22T01:15:51;21.20;99.90
18998;DHT22;9632;51.018;4.284;2023-06-22T01:18:19;21.20;99.90
18998;DHT22;9632;51.018;4.284;2023-06-22T01:20:54;21.20;99.90
18998;DHT22;9632;51.018;4.284;2023-06-22T01:23:56;21.10;99.90
18998;DHT22;9632;51.018;4.284;2023-06-22T01:29:20;21.00;99.90
18998;DHT22;9632;51.018;4.284;2023-06-22T01:31:48;21.00;99.90
18998;DHT22;9632;51.018;4.284;2023-06-22T01:34:15;21.00;99.90
18998;DHT22;9632;51.018;4.284;2023-06-22T01:36:42;21.00;99.90
18998;DHT22;9632;51.018;4.284;2023-06-22T01:39:09;21.00;99.90
18998;DHT22;9632;51.018;4.284;2023-06-22T01:41:37;21.00;99.90
18998;DHT22;9632;51.018;4.284;2023-06-22T01:44:07;21.00;99.90
18998;DHT22;9632;51.018;4.284;2023-06-22T01:46:35;21.00;99.90
18998;DHT22;9632;51.018;4.284;2023-06-22T01:49:02;21.00;99.90
18998;DHT22;9632;51.018;4.284;2023-06-22T01:51:28;20.90;99.90
18998;DHT22;9632;51.018;4.284;2023-06-22T01:53:53;21.00;99.90
18998;DHT22;9632;51.018;4.284;2023-06-22T01:56:19;20.90;99.90
18998;DHT22;9632;51.018;4.284;2023-06-22T01:58:51;21.00;99.90
18998;DHT22;9632;51.018;4.284;2023-06-22T02:01:26;20.90;99.90
18998;DHT22;9632;51.018;4.284;2023-06-22T02:04:13;20.90;99.90
18998;DHT22;9632;51.018;4.284;2023-06-22T02:06:42;20.90;99.90
18998;DHT22;9632;51.018;4.284;2023-06-22T02:09:13;20.90;99.90
18998;DHT22;9632;51.018;4.284;2023-06-22T02:11:41;20.90;99.90
18998;DHT22;9632;51.018;4.284;2023-06-22T02:14:08;20.80;99.90
18998;DHT22;9632;51.018;4.284;2023-06-22T02:16:35;20.80;99.90
18998;DHT22;9632;51.018;4.284;2023-06-22T02:19:01;20.80;99.90
18998;DHT22;9632;51.018;4.284;2023-06-22T02:21:31;20.80;99.90
18998;DHT22;9632;51.018;4.284;2023-06-22T02:23:58;20.80;99.90
18998;DHT22;9632;51.018;4.284;2023-06-22T02:26:25;20.70;99.90
18998;DHT22;9632;51.018;4.284;2023-06-22T02:28:51;20.70;99.90
18998;DHT22;9632;51.018;4.284;2023-06-22T02:31:17;20.70;99.90
18998;DHT22;9632;51.018;4.284;2023-06-22T02:33:43;20.70;99.90
18998;DHT22;9632;51.018;4.284;2023-06-22T02:36:09;20.60;99.90
18998;DHT22;9632;51.018;4.284;2023-06-22T02:38:35;20.70;99.90
18998;DHT22;9632;51.018;4.284;2023-06-22T02:41:02;20.60;99.90
18998;DHT22;9632;51.018;4.284;2023-06-22T02:43:28;20.60;99.90
18998;DHT22;9632;51.018;4.284;2023-06-22T02:45:53;20.60;99.90
18998;DHT22;9632;51.018;4.284;2023-06-22T02:48:19;20.60;99.90
18998;DHT22;9632;51.018;4.284;2023-06-22T02:50:45;20.60;99.90
18998;DHT22;9632;51.018;4.284;2023-06-22T02:53:10;20.60;99.90
18998;DHT22;9632;51.018;4.284;2023-06-22T02:55:36;20.60;99.90
18998;DHT22;9632;51.018;4.284;2023-06-22T02:58:02;20.50;99.90
18998;DHT22;9632;51.018;4.284;2023-06-22T03:00:31;20.50;99.90
18998;DHT22;9632;51.018;4.284;2023-06-22T03:02:57;20.50;99.90
18998;DHT22;9632;51.018;4.284;2023-06-22T03:05:23;20.40;99.90
18998;DHT22;9632;51.018;4.284;2023-06-22T03:07:49;20.50;99.90
18998;DHT22;9632;51.018;4.284;2023-06-22T03:10:15;20.40;99.90
18998;DHT22;9632;51.018;4.284;2023-06-22T03:12:42;20.40;99.90
18998;DHT22;9632;51.018;4.284;2023-06-22T03:15:10;20.40;99.90
18998;DHT22;9632;51.018;4.284;2023-06-22T03:17:36;20.30;99.90
18998;DHT22;9632;51.018;4.284;2023-06-22T03:20:03;20.30;99.90
18998;DHT22;9632;51.018;4.284;2023-06-22T03:22:39;20.30;99.90
18998;DHT22;9632;51.018;4.284;2023-06-22T03:25:07;20.30;99.90
18998;DHT22;9632;51.018;4.284;2023-06-22T03:27:36;20.30;99.90
18998;DHT22;9632;51.018;4.284;2023-06-22T03:30:02;20.30;99.90
18998;DHT22;9632;51.018;4.284;2023-06-22T03:32:27;20.30;99.90
18998;DHT22;9632;51.018;4.284;2023-06-22T03:34:53;20.30;99.90
18998;DHT22;9632;51.018;4.284;2023-06-22T03:37:19;20.20;99.90
18998;DHT22;9632;51.018;4.284;2023-06-22T03:39:44;20.20;99.90
18998;DHT22;9632;51.018;4.284;2023-06-22T03:42:10;20.20;99.90
18998;DHT22;9632;51.018;4.284;2023-06-22T03:44:36;20.20;99.90
18998;DHT22;9632;51.018;4.284;2023-06-22T03:47:05;20.20;99.90
18998;DHT22;9632;51.018;4.284;2023-06-22T03:49:33;20.20;99.90
18998;DHT22;9632;51.018;4.284;2023-06-22T03:52:00;20.10;99.90
18998;DHT22;9632;51.018;4.284;2023-06-22T03:54:27;20.10;99.90
18998;DHT22;9632;51.018;4.284;2023-06-22T03:56:53;20.20;99.90
18998;DHT22;9632;51.018;4.284;2023-06-22T03:59:19;20.10;99.90
18998;DHT22;9632;51.018;4.284;2023-06-22T04:01:45;20.10;99.90
18998;DHT22;9632;51.018;4.284;2023-06-22T04:04:11;20.10;99.90
18998;DHT22;9632;51.018;4.284;2023-06-22T04:06:38;20.10;99.90
18998;DHT22;9632;51.018;4.284;2023-06-22T04:09:05;20.10;99.90
18998;DHT22;9632;51.018;4.284;2023-06-22T04:11:31;20.10;99.90
18998;DHT22;9632;51.018;4.284;2023-06-22T04:13:56;20.10;99.90
18998;DHT22;9632;51.018;4.284;2023-06-22T04:16:22;20.10;99.90
18998;DHT22;9632;51.018;4.284;2023-06-22T04:18:47;20.20;99.90
18998;DHT22;9632;51.018;4.284;2023-06-22T04:21:13;20.20;99.90
18998;DHT22;9632;51.018;4.284;2023-06-22T04:23:39;20.20;99.90
18998;DHT22;9632;51.018;4.284;2023-06-22T04:26:05;20.20;99.90
18998;DHT22;9632;51.018;4.284;2023-06-22T04:28:30;20.20;99.90
18998;DHT22;9632;51.018;4.284;2023-06-22T04:31:01;20.30;99.90
18998;DHT22;9632;51.018;4.284;2023-06-22T04:33:28;20.30;99.90
18998;DHT22;9632;51.018;4.284;2023-06-22T04:35:57;20.30;99.90
18998;DHT22;9632;51.018;4.284;2023-06-22T04:38:23;20.30;99.90
18998;DHT22;9632;51.018;4.284;2023-06-22T04:40:50;20.40;99.90
18998;DHT22;9632;51.018;4.284;2023-06-22T04:43:15;20.40;99.90
18998;DHT22;9632;51.018;4.284;2023-06-22T04:45:41;20.50;99.90
18998;DHT22;9632;51.018;4.284;2023-06-22T04:48:07;20.50;99.90
18998;DHT22;9632;51.018;4.284;2023-06-22T04:50:37;20.50;99.90
18998;DHT22;9632;51.018;4.284;2023-06-22T04:53:04;20.60;99.90
18998;DHT22;9632;51.018;4.284;2023-06-22T04:55:32;20.70;99.90
18998;DHT22;9632;51.018;4.284;2023-06-22T04:57:57;20.70;99.90
18998;DHT22;9632;51.018;4.284;2023-06-22T05:00:30;20.80;99.90
18998;DHT22;9632;51.018;4.284;2023-06-22T05:02:55;20.80;99.90
18998;DHT22;9632;51.018;4.284;2023-06-22T05:05:23;20.80;99.90
18998;DHT22;9632;51.018;4.284;2023-06-22T05:07:50;20.90;99.90
18998;DHT22;9632;51.018;4.284;2023-06-22T05:10:19;20.90;99.90
18998;DHT22;9632;51.018;4.284;2023-06-22T05:12:45;20.80;99.90
18998;DHT22;9632;51.018;4.284;2023-06-22T05:15:11;20.90;99.90
18998;DHT22;9632;51.018;4.284;2023-06-22T05:17:37;20.90;99.90
18998;DHT22;9632;51.018;4.284;2023-06-22T05:20:09;21.00;99.90
18998;DHT22;9632;51.018;4.284;2023-06-22T05:22:35;21.00;99.90
18998;DHT22;9632;51.018;4.284;2023-06-22T05:25:01;21.10;99.90
18998;DHT22;9632;51.018;4.284;2023-06-22T05:27:26;21.10;99.90
18998;DHT22;9632;51.018;4.284;2023-06-22T05:29:52;21.20;99.90
18998;DHT22;9632;51.018;4.284;2023-06-22T05:32:18;21.20;99.90
18998;DHT22;9632;51.018;4.284;2023-06-22T05:34:44;21.20;99.90
18998;DHT22;9632;51.018;4.284;2023-06-22T05:37:10;21.20;99.90
18998;DHT22;9632;51.018;4.284;2023-06-22T05:39:36;21.30;99.90
18998;DHT22;9632;51.018;4.284;2023-06-22T05:42:07;21.40;99.90
18998;DHT22;9632;51.018;4.284;2023-06-22T05:44:33;21.40;99.90
18998;DHT22;9632;51.018;4.284;2023-06-22T05:46:59;21.40;99.90
18998;DHT22;9632;51.018;4.284;2023-06-22T05:49:25;21.50;99.90
18998;DHT22;9632;51.018;4.284;2023-06-22T05:51:55;21.50;99.90
18998;DHT22;9632;51.018;4.284;2023-06-22T05:54:21;21.60;99.90
18998;DHT22;9632;51.018;4.284;2023-06-22T05:56:46;21.60;99.90
18998;DHT22;9632;51.018;4.284;2023-06-22T05:59:12;21.60;99.90
18998;DHT22;9632;51.018;4.284;2023-06-22T06:01:37;21.60;99.90
18998;DHT22;9632;51.018;4.284;2023-06-22T06:04:05;21.60;99.90
18998;DHT22;9632;51.018;4.284;2023-06-22T06:06:33;21.70;99.90
18998;DHT22;9632;51.018;4.284;2023-06-22T06:09:05;21.70;99.90
18998;DHT22;9632;51.018;4.284;2023-06-22T06:11:32;21.60;99.90
18998;DHT22;9632;51.018;4.284;2023-06-22T06:13:58;21.60;99.90
18998;DHT22;9632;51.018;4.284;2023-06-22T06:16:24;21.60;99.90
18998;DHT22;9632;51.018;4.284;2023-06-22T06:18:50;21.60;99.90
18998;DHT22;9632;51.018;4.284;2023-06-22T06:21:16;21.60;99.90
18998;DHT22;9632;51.018;4.284;2023-06-22T06:23:42;21.60;99.90
18998;DHT22;9632;51.018;4.284;2023-06-22T06:26:08;21.70;99.90
18998;DHT22;9632;51.018;4.284;2023-06-22T06:28:34;21.70;99.90
18998;DHT22;9632;51.018;4.284;2023-06-22T06:31:00;21.70;99.90
18998;DHT22;9632;51.018;4.284;2023-06-22T06:33:26;21.70;99.90
18998;DHT22;9632;51.018;4.284;2023-06-22T06:35:52;21.70;99.90
18998;DHT22;9632;51.018;4.284;2023-06-22T06:38:17;21.80;99.90
18998;DHT22;9632;51.018;4.284;2023-06-22T06:40:43;21.80;99.90
18998;DHT22;9632;51.018;4.284;2023-06-22T06:43:10;21.90;99.90
18998;DHT22;9632;51.018;4.284;2023-06-22T06:45:36;21.80;99.90
18998;DHT22;9632;51.018;4.284;2023-06-22T06:48:01;21.90;99.90
18998;DHT22;9632;51.018;4.284;2023-06-22T06:50:27;21.90;99.90
18998;DHT22;9632;51.018;4.284;2023-06-22T06:52:53;21.90;99.90
18998;DHT22;9632;51.018;4.284;2023-06-22T06:55:19;22.00;99.90
18998;DHT22;9632;51.018;4.284;2023-06-22T06:57:45;22.10;99.90
18998;DHT22;9632;51.018;4.284;2023-06-22T07:00:14;22.10;99.90
18998;DHT22;9632;51.018;4.284;2023-06-22T07:02:44;22.10;99.90
18998;DHT22;9632;51.018;4.284;2023-06-22T07:05:11;22.20;99.90
18998;DHT22;9632;51.018;4.284;2023-06-22T07:07:37;22.20;99.90
18998;DHT22;9632;51.018;4.284;2023-06-22T07:10:05;22.30;99.90
18998;DHT22;9632;51.018;4.284;2023-06-22T07:12:30;22.30;99.90
18998;DHT22;9632;51.018;4.284;2023-06-22T07:15:07;22.30;99.90
18998;DHT22;9632;51.018;4.284;2023-06-22T07:17:34;22.40;99.90
18998;DHT22;9632;51.018;4.284;2023-06-22T07:20:00;22.40;99.90
18998;DHT22;9632;51.018;4.284;2023-06-22T07:22:26;22.40;99.90
18998;DHT22;9632;51.018;4.284;2023-06-22T07:24:51;22.50;99.90
18998;DHT22;9632;51.018;4.284;2023-06-22T07:27:17;22.50;99.90
18998;DHT22;9632;51.018;4.284;2023-06-22T07:29:44;22.60;99.90
18998;DHT22;9632;51.018;4.284;2023-06-22T07:32:10;22.60;99.90
18998;DHT22;9632;51.018;4.284;2023-06-22T07:34:36;22.70;99.90
18998;DHT22;9632;51.018;4.284;2023-06-22T07:37:02;22.80;99.90
18998;DHT22;9632;51.018;4.284;2023-06-22T07:39:27;22.90;99.90
18998;DHT22;9632;51.018;4.284;2023-06-22T07:41:54;23.00;99.90
18998;DHT22;9632;51.018;4.284;2023-06-22T07:44:20;23.10;99.90
18998;DHT22;9632;51.018;4.284;2023-06-22T07:46:45;23.20;99.90
18998;DHT22;9632;51.018;4.284;2023-06-22T07:49:15;23.20;99.90
18998;DHT22;9632;51.018;4.284;2023-06-22T07:51:41;23.30;99.90
18998;DHT22;9632;51.018;4.284;2023-06-22T07:54:09;23.30;99.90
18998;DHT22;9632;51.018;4.284;2023-06-22T07:56:36;23.40;99.90
18998;DHT22;9632;51.018;4.284;2023-06-22T07:59:02;23.40;99.90
18998;DHT22;9632;51.018;4.284;2023-06-22T08:01:29;23.40;99.90
18998;DHT22;9632;51.018;4.284;2023-06-22T08:03:55;23.40;99.90
18998;DHT22;9632;51.018;4.284;2023-06-22T08:06:20;23.30;99.90
18998;DHT22;9632;51.018;4.284;2023-06-22T08:08:46;23.30;99.90
18998;DHT22;9632;51.018;4.284;2023-06-22T08:11:14;23.30;99.90
18998;DHT22;9632;51.018;4.284;2023-06-22T08:13:40;23.30;99.90
18998;DHT22;9632;51.018;4.284;2023-06-22T08:16:05;23.30;99.90
18998;DHT22;9632;51.018;4.284;2023-06-22T08:18:32;23.30;99.90
18998;DHT22;9632;51.018;4.284;2023-06-22T08:20:58;23.40;99.90
18998;DHT22;9632;51.018;4.284;2023-06-22T08:23:24;23.40;99.90
18998;DHT22;9632;51.018;4.284;2023-06-22T08:25:49;23.40;99.90
18998;DHT22;9632;51.018;4.284;2023-06-22T08:28:15;23.50;99.90
18998;DHT22;9632;51.018;4.284;2023-06-22T08:30:41;23.40;99.90
18998;DHT22;9632;51.018;4.284;2023-06-22T08:33:07;23.40;99.90
18998;DHT22;9632;51.018;4.284;2023-06-22T08:35:32;23.40;99.90
18998;DHT22;9632;51.018;4.284;2023-06-22T08:37:58;23.40;99.90
18998;DHT22;9632;51.018;4.284;2023-06-22T08:40:25;23.30;99.90
18998;DHT22;9632;51.018;4.284;2023-06-22T08:42:51;23.30;99.90
18998;DHT22;9632;51.018;4.284;2023-06-22T08:45:16;23.30;99.90
18998;DHT22;9632;51.018;4.284;2023-06-22T08:47:42;23.30;99.90
18998;DHT22;9632;51.018;4.284;2023-06-22T08:50:09;23.30;99.90
18998;DHT22;9632;51.018;4.284;2023-06-22T08:52:35;23.40;99.90
18998;DHT22;9632;51.018;4.284;2023-06-22T08:55:01;23.40;99.90
18998;DHT22;9632;51.018;4.284;2023-06-22T08:57:27;23.40;99.90
18998;DHT22;9632;51.018;4.284;2023-06-22T08:59:53;23.40;99.90
18998;DHT22;9632;51.018;4.284;2023-06-22T09:02:24;23.40;99.90
18998;DHT22;9632;51.018;4.284;2023-06-22T09:04:49;23.40;99.90
18998;DHT22;9632;51.018;4.284;2023-06-22T09:07:23;23.40;99.90
18998;DHT22;9632;51.018;4.284;2023-06-22T09:09:50;23.50;99.90
18998;DHT22;9632;51.018;4.284;2023-06-22T09:12:17;23.50;99.90
18998;DHT22;9632;51.018;4.284;2023-06-22T09:14:45;23.50;99.90
18998;DHT22;9632;51.018;4.284;2023-06-22T09:17:12;23.50;99.90
18998;DHT22;9632;51.018;4.284;2023-06-22T09:19:38;23.50;99.90
18998;DHT22;9632;51.018;4.284;2023-06-22T09:22:04;23.50;99.90
18998;DHT22;9632;51.018;4.284;2023-06-22T09:24:32;23.50;99.90
18998;DHT22;9632;51.018;4.284;2023-06-22T09:26:57;23.50;99.90
18998;DHT22;9632;51.018;4.284;2023-06-22T09:29:23;23.50;99.90
18998;DHT22;9632;51.018;4.284;2023-06-22T09:31:48;23.50;99.90
18998;DHT22;9632;51.018;4.284;2023-06-22T09:34:14;23.50;99.90
18998;DHT22;9632;51.018;4.284;2023-06-22T09:36:41;23.50;99.90
18998;DHT22;9632;51.018;4.284;2023-06-22T09:39:07;23.50;99.90
18998;DHT22;9632;51.018;4.284;2023-06-22T09:41:32;23.50;99.90
18998;DHT22;9632;51.018;4.284;2023-06-22T09:43:58;23.50;99.90
18998;DHT22;9632;51.018;4.284;2023-06-22T09:46:23;23.50;99.90
18998;DHT22;9632;51.018;4.284;2023-06-22T09:48:52;23.60;99.90
18998;DHT22;9632;51.018;4.284;2023-06-22T09:51:17;23.60;99.90
18998;DHT22;9632;51.018;4.284;2023-06-22T09:53:45;23.70;99.90
18998;DHT22;9632;51.018;4.284;2023-06-22T09:56:10;23.70;99.90
18998;DHT22;9632;51.018;4.284;2023-06-22T09:58:43;23.70;99.90
18998;DHT22;9632;51.018;4.284;2023-06-22T10:01:09;23.70;99.90
18998;DHT22;9632;51.018;4.284;2023-06-22T10:03:36;23.70;99.90
18998;DHT22;9632;51.018;4.284;2023-06-22T10:06:02;23.70;99.90
18998;DHT22;9632;51.018;4.284;2023-06-22T10:08:28;23.60;99.90
18998;DHT22;9632;51.018;4.284;2023-06-22T10:10:53;23.60;99.90
18998;DHT22;9632;51.018;4.284;2023-06-22T10:13:19;23.60;99.90
18998;DHT22;9632;51.018;4.284;2023-06-22T10:15:45;23.60;99.90
18998;DHT22;9632;51.018;4.284;2023-06-22T10:18:15;23.50;99.90
18998;DHT22;9632;51.018;4.284;2023-06-22T10:20:41;23.50;99.90
18998;DHT22;9632;51.018;4.284;2023-06-22T10:23:07;23.50;99.90
18998;DHT22;9632;51.018;4.284;2023-06-22T10:25:33;23.40;99.90
18998;DHT22;9632;51.018;4.284;2023-06-22T10:27:58;23.40;99.90
18998;DHT22;9632;51.018;4.284;2023-06-22T10:30:24;23.30;99.90
18998;DHT22;9632;51.018;4.284;2023-06-22T10:32:49;23.20;99.90
18998;DHT22;9632;51.018;4.284;2023-06-22T10:35:15;23.20;99.90
18998;DHT22;9632;51.018;4.284;2023-06-22T10:37:45;23.20;99.90
18998;DHT22;9632;51.018;4.284;2023-06-22T10:40:15;23.10;99.90
18998;DHT22;9632;51.018;4.284;2023-06-22T10:42:41;23.10;99.90
18998;DHT22;9632;51.018;4.284;2023-06-22T10:45:07;22.90;99.90
18998;DHT22;9632;51.018;4.284;2023-06-22T10:47:34;22.80;99.90
18998;DHT22;9632;51.018;4.284;2023-06-22T10:49:59;22.70;99.90
18998;DHT22;9632;51.018;4.284;2023-06-22T10:52:25;22.50;99.90
18998;DHT22;9632;51.018;4.284;2023-06-22T10:54:50;22.40;99.90
18998;DHT22;9632;51.018;4.284;2023-06-22T10:57:17;22.30;99.90
18998;DHT22;9632;51.018;4.284;2023-06-22T10:59:43;22.30;99.90
18998;DHT22;9632;51.018;4.284;2023-06-22T11:02:08;22.10;99.90
18998;DHT22;9632;51.018;4.284;2023-06-22T11:04:34;21.90;99.90
18998;DHT22;9632;51.018;4.284;2023-06-22T11:07:00;21.80;99.90
18998;DHT22;9632;51.018;4.284;2023-06-22T11:09:25;21.70;99.90
18998;DHT22;9632;51.018;4.284;2023-06-22T11:11:52;21.50;99.90
18998;DHT22;9632;51.018;4.284;2023-06-22T11:14:19;21.50;99.90
18998;DHT22;9632;51.018;4.284;2023-06-22T11:16:45;21.40;99.90
18998;DHT22;9632;51.018;4.284;2023-06-22T11:19:11;21.40;99.90
18998;DHT22;9632;51.018;4.284;2023-06-22T11:21:37;21.30;99.90
18998;DHT22;9632;51.018;4.284;2023-06-22T11:24:03;21.30;99.90
18998;DHT22;9632;51.018;4.284;2023-06-22T11:26:29;21.20;99.90
18998;DHT22;9632;51.018;4.284;2023-06-22T11:28:55;21.20;99.90
18998;DHT22;9632;51.018;4.284;2023-06-22T11:31:21;21.20;99.90
18998;DHT22;9632;51.018;4.284;2023-06-22T11:33:46;21.10;99.90
18998;DHT22;9632;51.018;4.284;2023-06-22T11:36:14;21.20;99.90
18998;DHT22;9632;51.018;4.284;2023-06-22T11:38:40;21.20;99.90
18998;DHT22;9632;51.018;4.284;2023-06-22T11:41:09;21.10;99.90
18998;DHT22;9632;51.018;4.284;2023-06-22T11:43:35;21.10;99.90
18998;DHT22;9632;51.018;4.284;2023-06-22T11:46:02;21.20;99.90
18998;DHT22;9632;51.018;4.284;2023-06-22T11:48:29;21.20;99.90
18998;DHT22;9632;51.018;4.284;2023-06-22T11:50:58;21.20;99.90
18998;DHT22;9632;51.018;4.284;2023-06-22T11:53:25;21.30;99.90
18998;DHT22;9632;51.018;4.284;2023-06-22T11:55:51;21.30;99.90
18998;DHT22;9632;51.018;4.284;2023-06-22T11:58:19;21.30;99.90
18998;DHT22;9632;51.018;4.284;2023-06-22T12:00:45;21.40;99.90
18998;DHT22;9632;51.018;4.284;2023-06-22T12:03:11;21.40;99.90
18998;DHT22;9632;51.018;4.284;2023-06-22T12:05:38;21.40;99.90
18998;DHT22;9632;51.018;4.284;2023-06-22T12:08:04;21.50;99.90
18998;DHT22;9632;51.018;4.284;2023-06-22T12:10:29;21.50;99.90
18998;DHT22;9632;51.018;4.284;2023-06-22T12:12:55;21.60;99.90
18998;DHT22;9632;51.018;4.284;2023-06-22T12:15:23;21.60;99.90
18998;DHT22;9632;51.018;4.284;2023-06-22T12:17:48;21.60;99.90
18998;DHT22;9632;51.018;4.284;2023-06-22T12:20:14;21.70;99.90
18998;DHT22;9632;51.018;4.284;2023-06-22T12:22:41;21.70;99.90
18998;DHT22;9632;51.018;4.284;2023-06-22T12:25:07;21.70;99.90
18998;DHT22;9632;51.018;4.284;2023-06-22T12:27:34;21.70;99.90
18998;DHT22;9632;51.018;4.284;2023-06-22T12:30:00;21.60;99.90
18998;DHT22;9632;51.018;4.284;2023-06-22T12:32:26;21.60;99.90
18998;DHT22;9632;51.018;4.284;2023-06-22T12:34:51;21.60;99.90
18998;DHT22;9632;51.018;4.284;2023-06-22T12:37:17;21.70;99.90
18998;DHT22;9632;51.018;4.284;2023-06-22T12:39:43;21.70;99.90
18998;DHT22;9632;51.018;4.284;2023-06-22T12:42:09;21.70;99.90
18998;DHT22;9632;51.018;4.284;2023-06-22T12:44:38;21.70;99.90
18998;DHT22;9632;51.018;4.284;2023-06-22T12:47:03;21.60;99.90
18998;DHT22;9632;51.018;4.284;2023-06-22T12:49:29;21.60;99.90
18998;DHT22;9632;51.018;4.284;2023-06-22T12:51:55;21.60;99.90
18998;DHT22;9632;51.018;4.284;2023-06-22T12:54:20;21.60;99.90
18998;DHT22;9632;51.018;4.284;2023-06-22T12:56:46;21.50;99.90
18998;DHT22;9632;51.018;4.284;2023-06-22T12:59:12;21.50;99.90
18998;DHT22;9632;51.018;4.284;2023-06-22T13:01:38;21.40;99.90
18998;DHT22;9632;51.018;4.284;2023-06-22T13:04:04;21.40;99.90
18998;DHT22;9632;51.018;4.284;2023-06-22T13:06:30;21.30;99.90
18998;DHT22;9632;51.018;4.284;2023-06-22T13:08:56;21.40;99.90
18998;DHT22;9632;51.018;4.284;2023-06-22T13:11:21;21.40;99.90
18998;DHT22;9632;51.018;4.284;2023-06-22T13:13:47;21.40;99.90
18998;DHT22;9632;51.018;4.284;2023-06-22T13:16:13;21.30;99.90
18998;DHT22;9632;51.018;4.284;2023-06-22T13:18:38;21.30;99.90
18998;DHT22;9632;51.018;4.284;2023-06-22T13:21:04;21.20;99.90
18998;DHT22;9632;51.018;4.284;2023-06-22T13:23:30;21.10;99.90
18998;DHT22;9632;51.018;4.284;2023-06-22T13:25:57;21.00;99.90
18998;DHT22;9632;51.018;4.284;2023-06-22T13:28:23;21.00;99.90
18998;DHT22;9632;51.018;4.284;2023-06-22T13:30:48;21.00;99.90
18998;DHT22;9632;51.018;4.284;2023-06-22T13:33:14;21.00;99.90
18998;DHT22;9632;51.018;4.284;2023-06-22T13:35:40;21.00;99.90
18998;DHT22;9632;51.018;4.284;2023-06-22T13:38:08;21.00;99.90
18998;DHT22;9632;51.018;4.284;2023-06-22T13:40:34;20.90;99.90
18998;DHT22;9632;51.018;4.284;2023-06-22T13:43:00;20.90;99.90
18998;DHT22;9632;51.018;4.284;2023-06-22T13:45:26;20.90;99.90
18998;DHT22;9632;51.018;4.284;2023-06-22T13:47:52;20.80;99.90
18998;DHT22;9632;51.018;4.284;2023-06-22T13:50:17;20.80;99.90
18998;DHT22;9632;51.018;4.284;2023-06-22T13:52:43;20.90;99.90
18998;DHT22;9632;51.018;4.284;2023-06-22T13:55:09;20.80;99.90
18998;DHT22;9632;51.018;4.284;2023-06-22T13:57:35;20.80;99.90
18998;DHT22;9632;51.018;4.284;2023-06-22T14:00:02;20.80;99.90
18998;DHT22;9632;51.018;4.284;2023-06-22T14:02:29;20.80;99.90
18998;DHT22;9632;51.018;4.284;2023-06-22T14:04:54;20.80;99.90
18998;DHT22;9632;51.018;4.284;2023-06-22T14:07:20;20.80;99.90
18998;DHT22;9632;51.018;4.284;2023-06-22T14:09:46;20.70;99.90
18998;DHT22;9632;51.018;4.284;2023-06-22T14:12:12;20.80;99.90
18998;DHT22;9632;51.018;4.284;2023-06-22T14:14:38;20.90;99.90
18998;DHT22;9632;51.018;4.284;2023-06-22T14:17:04;20.90;99.90
18998;DHT22;9632;51.018;4.284;2023-06-22T14:19:33;20.90;99.90
18998;DHT22;9632;51.018;4.284;2023-06-22T14:21:59;20.90;99.90
18998;DHT22;9632;51.018;4.284;2023-06-22T14:24:24;20.90;99.90
18998;DHT22;9632;51.018;4.284;2023-06-22T14:26:50;20.90;99.90
18998;DHT22;9632;51.018;4.284;2023-06-22T14:29:16;20.90;99.90
18998;DHT22;9632;51.018;4.284;2023-06-22T14:31:45;21.00;99.90
18998;DHT22;9632;51.018;4.284;2023-06-22T14:34:11;21.00;99.90
18998;DHT22;9632;51.018;4.284;2023-06-22T14:36:37;21.00;99.90
18998;DHT22;9632;51.018;4.284;2023-06-22T14:39:02;21.10;99.90
18998;DHT22;9632;51.018;4.284;2023-06-22T14:41:29;21.10;99.90
18998;DHT22;9632;51.018;4.284;2023-06-22T14:43:55;21.00;99.90
18998;DHT22;9632;51.018;4.284;2023-06-22T14:46:21;21.00;99.90
18998;DHT22;9632;51.018;4.284;2023-06-22T14:48:46;21.10;99.90
18998;DHT22;9632;51.018;4.284;2023-06-22T14:51:13;21.10;99.90
18998;DHT22;9632;51.018;4.284;2023-06-22T14:53:38;21.20;99.90
18998;DHT22;9632;51.018;4.284;2023-06-22T14:56:04;21.20;99.90
18998;DHT22;9632;51.018;4.284;2023-06-22T14:58:31;21.20;99.90
18998;DHT22;9632;51.018;4.284;2023-06-22T15:01:04;21.30;99.90
18998;DHT22;9632;51.018;4.284;2023-06-22T15:03:34;21.30;99.90
18998;DHT22;9632;51.018;4.284;2023-06-22T15:06:01;21.30;99.90
18998;DHT22;9632;51.018;4.284;2023-06-22T15:08:27;21.40;99.90
18998;DHT22;9632;51.018;4.284;2023-06-22T15:10:53;21.40;99.90
18998;DHT22;9632;51.018;4.284;2023-06-22T15:13:19;21.40;99.90
18998;DHT22;9632;51.018;4.284;2023-06-22T15:15:47;21.40;99.90
18998;DHT22;9632;51.018;4.284;2023-06-22T15:18:14;21.40;99.90
18998;DHT22;9632;51.018;4.284;2023-06-22T15:20:40;21.40;99.90
18998;DHT22;9632;51.018;4.284;2023-06-22T15:23:07;21.40;99.90
18998;DHT22;9632;51.018;4.284;2023-06-22T15:25:35;21.40;99.90
18998;DHT22;9632;51.018;4.284;2023-06-22T15:28:00;21.40;99.90
18998;DHT22;9632;51.018;4.284;2023-06-22T15:30:26;21.50;99.90
18998;DHT22;9632;51.018;4.284;2023-06-22T15:32:51;21.40;99.90
18998;DHT22;9632;51.018;4.284;2023-06-22T15:35:18;21.50;99.90
18998;DHT22;9632;51.018;4.284;2023-06-22T15:37:45;21.50;99.90
18998;DHT22;9632;51.018;4.284;2023-06-22T15:40:11;21.50;99.90
18998;DHT22;9632;51.018;4.284;2023-06-22T15:42:37;21.60;99.90
18998;DHT22;9632;51.018;4.284;2023-06-22T15:45:03;21.60;99.90
18998;DHT22;9632;51.018;4.284;2023-06-22T15:47:29;21.60;99.90